Time;durP1;ratioP1;P1;durP2;ratioP2;P2;SDS_P1;SDS_P2;PMS_P1;PMS_P2;Temp;Humidity;BMP_temperature;BMP_pressure;BME280_temperature;BME280_humidity;BME280_pressure;Samples;Min_cycle;Max_cycle;Signal;HPM_P1;HPM_P2
2023/04/30 00:02:21;;;;;;;6.03;4.55;;;13.70;63.10;;;;;;5058637;28;20040;-62
2023/04/30 00:04:47;;;;;;;4.88;3.85;;;13.70;63.20;;;;;;5059848;28;20060;-61
2023/04/30 00:07:13;;;;;;;6.53;4.45;;;13.70;63.30;;;;;;5059513;28;20036;-60
2023/04/30 00:09:38;;;;;;;4.93;4.18;;;13.70;63.50;;;;;;5053678;28;20033;-61
2023/04/30 00:12:04;;;;;;;5.75;4.10;;;13.70;63.50;;;;;;5054734;28;20024;-61
2023/04/30 00:14:30;;;;;;;5.97;3.88;;;13.60;63.40;;;;;;5054567;28;20037;-61
2023/04/30 00:16:56;;;;;;;5.00;3.85;;;13.60;63.40;;;;;;5056221;28;20025;-61
2023/04/30 00:19:21;;;;;;;6.55;4.07;;;13.60;63.40;;;;;;5036492;28;20033;-61
2023/04/30 00:21:47;;;;;;;5.82;4.10;;;13.60;63.40;;;;;;5053507;28;20436;-61
2023/04/30 00:24:13;;;;;;;7.65;3.75;;;13.60;63.40;;;;;;5055505;28;20045;-60
2023/04/30 00:26:39;;;;;;;5.25;4.05;;;13.70;63.50;;;;;;5054210;28;20021;-60
2023/04/30 00:29:05;;;;;;;7.43;4.15;;;13.70;63.60;;;;;;5053743;28;20056;-61
2023/04/30 00:31:31;;;;;;;5.03;4.00;;;13.70;63.60;;;;;;5052890;28;20488;-61
2023/04/30 00:33:57;;;;;;;5.88;4.22;;;13.80;63.80;;;;;;5053846;28;20072;-61
2023/04/30 00:36:22;;;;;;;6.22;4.57;;;13.70;63.80;;;;;;5053873;28;20079;-60
2023/04/30 00:38:48;;;;;;;5.80;4.40;;;13.70;63.80;;;;;;5053659;28;20036;-62
2023/04/30 00:41:13;;;;;;;5.55;4.47;;;13.70;63.80;;;;;;4959818;28;20025;-60
2023/04/30 00:43:39;;;;;;;5.72;4.40;;;13.70;63.70;;;;;;5057345;28;20037;-60
2023/04/30 00:46:05;;;;;;;5.43;4.22;;;13.70;63.80;;;;;;5059615;28;20032;-60
2023/04/30 00:48:31;;;;;;;6.55;4.50;;;13.70;63.80;;;;;;5061451;28;20029;-61
2023/04/30 00:50:56;;;;;;;5.00;4.00;;;13.70;63.90;;;;;;5059533;28;20052;-60
2023/04/30 00:53:22;;;;;;;4.95;3.90;;;13.70;64.00;;;;;;5058417;28;20495;-60
2023/04/30 00:55:48;;;;;;;7.88;4.50;;;13.70;63.90;;;;;;5056519;28;20033;-61
2023/04/30 00:58:14;;;;;;;5.72;4.20;;;13.70;63.80;;;;;;5059895;28;20028;-61
2023/04/30 01:00:45;;;;;;;7.30;4.85;;;13.80;63.90;;;;;;5059326;28;20036;-62
2023/04/30 01:03:14;;;;;;;6.10;4.38;;;13.80;63.90;;;;;;5060232;28;20052;-61
2023/04/30 01:05:40;;;;;;;6.28;4.40;;;13.70;63.70;;;;;;5060274;28;20117;-61
2023/04/30 01:08:08;;;;;;;5.30;4.50;;;13.70;63.60;;;;;;5060617;28;20064;-60
2023/04/30 01:10:44;;;;;;;6.57;4.68;;;13.70;63.60;;;;;;5058374;28;20033;-61
2023/04/30 01:13:29;;;;;;;5.80;4.25;;;13.70;63.90;;;;;;5057493;28;20039;-62
2023/04/30 01:16:14;;;;;;;5.55;4.15;;;13.70;64.00;;;;;;5056129;28;20060;-61
2023/04/30 01:18:47;;;;;;;5.97;4.35;;;13.70;64.00;;;;;;5052058;28;20034;-61
2023/04/30 01:21:16;;;;;;;4.68;3.97;;;13.70;63.70;;;;;;5039835;28;20202;-61
2023/04/30 01:24:01;;;;;;;5.75;3.72;;;13.70;63.70;;;;;;5057275;28;20029;-61
2023/04/30 01:27:04;;;;;;;6.05;4.20;;;13.60;63.80;;;;;;5055817;28;20376;-61
2023/04/30 01:29:31;;;;;;;5.75;4.25;;;13.60;64.20;;;;;;5057213;28;20041;-62
2023/04/30 01:31:57;;;;;;;8.70;4.43;;;13.50;63.50;;;;;;5040591;28;20029;-62
2023/04/30 01:34:22;;;;;;;6.30;4.32;;;13.50;63.60;;;;;;5054579;28;20031;-60
2023/04/30 01:37:10;;;;;;;8.35;4.60;;;13.40;63.60;;;;;;5057734;28;20053;-60
2023/04/30 01:40:30;;;;;;;8.48;4.75;;;13.40;64.10;;;;;;5054936;28;20106;-60
2023/04/30 01:43:25;;;;;;;7.03;4.95;;;13.40;63.90;;;;;;4997244;28;20031;-60
2023/04/30 01:46:15;;;;;;;6.15;4.90;;;13.40;63.90;;;;;;4990588;28;20152;-60
2023/04/30 01:49:02;;;;;;;8.18;5.40;;;13.30;63.90;;;;;;4994756;28;20058;-61
2023/04/30 01:51:42;;;;;;;6.93;5.25;;;13.30;63.80;;;;;;4992616;28;20034;-62
2023/04/30 01:54:40;;;;;;;8.45;5.72;;;13.20;64.10;;;;;;4996880;28;20099;-61
2023/04/30 01:57:09;;;;;;;6.82;5.15;;;13.20;64.50;;;;;;4996267;28;20067;-61
2023/04/30 01:59:38;;;;;;;8.48;5.38;;;13.20;64.00;;;;;;5003816;28;20061;-61
2023/04/30 02:02:05;;;;;;;7.97;5.70;;;13.20;64.10;;;;;;4999986;28;20026;-62
2023/04/30 02:04:31;;;;;;;7.25;5.32;;;13.20;64.20;;;;;;4992194;28;20038;-61
2023/04/30 02:06:57;;;;;;;6.97;5.30;;;13.10;64.90;;;;;;4985576;28;20073;-60
2023/04/30 02:09:23;;;;;;;7.72;5.30;;;13.10;64.30;;;;;;4992735;28;20207;-62
2023/04/30 02:11:50;;;;;;;7.85;4.97;;;13.10;64.30;;;;;;4995129;28;20031;-62
2023/04/30 02:14:15;;;;;;;9.27;5.85;;;13.10;64.30;;;;;;5038241;28;20045;-63
2023/04/30 02:16:41;;;;;;;6.55;5.38;;;13.10;64.30;;;;;;5056395;28;20079;-61
2023/04/30 02:19:07;;;;;;;6.47;4.80;;;13.10;64.50;;;;;;5056829;28;20518;-62
2023/04/30 02:21:33;;;;;;;6.72;5.43;;;13.10;64.50;;;;;;5058808;28;20032;-60
2023/04/30 02:23:59;;;;;;;6.75;5.20;;;13.10;64.50;;;;;;5055562;28;20509;-61
2023/04/30 02:26:25;;;;;;;10.15;6.10;;;13.10;64.50;;;;;;5056033;28;20061;-61
2023/04/30 02:28:51;;;;;;;7.57;5.57;;;13.10;64.40;;;;;;5037921;28;20033;-60
2023/04/30 02:31:17;;;;;;;7.55;6.05;;;13.10;64.40;;;;;;5034474;28;20096;-60
2023/04/30 02:33:42;;;;;;;7.53;5.40;;;13.10;64.50;;;;;;5054986;28;20036;-60
2023/04/30 02:36:08;;;;;;;8.40;6.00;;;13.10;64.50;;;;;;5056929;28;20029;-61
2023/04/30 02:38:34;;;;;;;7.15;5.43;;;13.10;64.60;;;;;;5057556;28;20099;-61
2023/04/30 02:41:01;;;;;;;7.90;6.03;;;13.10;64.60;;;;;;5001170;28;20025;-61
2023/04/30 02:43:26;;;;;;;8.45;5.97;;;13.10;64.60;;;;;;5053326;28;20047;-61
2023/04/30 02:45:52;;;;;;;8.65;6.53;;;13.10;64.50;;;;;;5054221;28;20183;-61
2023/04/30 02:48:18;;;;;;;8.27;6.22;;;13.10;64.70;;;;;;5057487;28;20037;-61
2023/04/30 02:50:43;;;;;;;7.65;6.03;;;13.10;64.80;;;;;;5055007;28;20601;-62
2023/04/30 02:53:09;;;;;;;8.15;5.88;;;13.10;64.90;;;;;;5056094;28;20029;-61
2023/04/30 02:55:35;;;;;;;9.00;5.88;;;13.10;64.90;;;;;;5055942;28;20108;-61
2023/04/30 02:58:02;;;;;;;7.68;5.95;;;13.10;65.10;;;;;;5057493;28;20471;-60
2023/04/30 03:00:28;;;;;;;9.20;6.38;;;13.20;65.80;;;;;;5055610;28;20017;-61
2023/04/30 03:02:53;;;;;;;8.38;6.18;;;13.20;64.90;;;;;;5057782;28;20100;-62
2023/04/30 03:05:19;;;;;;;8.75;5.85;;;13.20;64.80;;;;;;5053063;28;20045;-61
2023/04/30 03:07:44;;;;;;;8.52;6.07;;;13.20;64.80;;;;;;5056305;28;20302;-61
2023/04/30 03:10:10;;;;;;;8.95;6.07;;;13.20;64.80;;;;;;5055654;28;20527;-60
2023/04/30 03:12:36;;;;;;;10.10;6.63;;;13.20;64.80;;;;;;5057582;28;20029;-60
2023/04/30 03:15:02;;;;;;;10.13;6.85;;;13.20;64.80;;;;;;5054327;28;20017;-62
2023/04/30 03:17:28;;;;;;;8.80;6.22;;;13.10;64.70;;;;;;5056499;28;20086;-62
2023/04/30 03:19:53;;;;;;;9.10;6.47;;;13.10;64.70;;;;;;5056937;28;20025;-62
2023/04/30 03:22:22;;;;;;;9.27;6.57;;;13.10;64.80;;;;;;5054080;28;20052;-61
2023/04/30 03:24:48;;;;;;;7.22;5.90;;;13.10;64.80;;;;;;5053504;28;20151;-62
2023/04/30 03:27:15;;;;;;;9.20;7.05;;;13.10;64.90;;;;;;5050827;28;20499;-61
2023/04/30 03:29:41;;;;;;;14.70;7.05;;;13.00;64.90;;;;;;5056454;28;20140;-61
2023/04/30 03:32:07;;;;;;;9.65;7.47;;;13.00;65.00;;;;;;5051670;28;20436;-60
2023/04/30 03:34:32;;;;;;;11.25;7.30;;;13.00;65.00;;;;;;5055477;28;20037;-61
2023/04/30 03:36:58;;;;;;;10.82;7.30;;;13.00;65.00;;;;;;5056901;28;20047;-61
2023/04/30 03:39:23;;;;;;;10.57;7.47;;;13.00;65.00;;;;;;5051807;28;20041;-60
2023/04/30 03:41:49;;;;;;;9.07;7.00;;;13.00;65.00;;;;;;4963416;28;20033;-62
2023/04/30 03:44:15;;;;;;;10.00;7.18;;;13.00;65.10;;;;;;5054786;28;20033;-60
2023/04/30 03:46:42;;;;;;;11.10;7.38;;;12.90;65.10;;;;;;5056427;28;20035;-62
2023/04/30 03:49:08;;;;;;;8.85;7.30;;;12.90;65.10;;;;;;5055686;28;20051;-63
2023/04/30 03:51:38;;;;;;;10.32;7.15;;;12.90;65.10;;;;;;5055106;28;20033;-60
2023/04/30 03:54:05;;;;;;;8.43;6.70;;;12.90;65.10;;;;;;5053895;28;20531;-61
2023/04/30 03:56:31;;;;;;;10.32;7.28;;;12.90;65.10;;;;;;5056565;28;20036;-62
2023/04/30 03:58:57;;;;;;;7.95;6.70;;;12.90;65.00;;;;;;5054708;28;20032;-62
2023/04/30 04:01:23;;;;;;;8.88;6.75;;;12.80;65.00;;;;;;5055359;28;20029;-60
2023/04/30 04:03:49;;;;;;;11.15;6.45;;;12.80;65.00;;;;;;5054897;28;20119;-61
2023/04/30 04:06:14;;;;;;;8.20;6.70;;;12.80;65.00;;;;;;5055160;28;20419;-61
2023/04/30 04:08:42;;;;;;;8.85;6.38;;;12.70;64.90;;;;;;5052053;28;20036;-60
2023/04/30 04:11:11;;;;;;;13.52;6.65;;;12.70;64.70;;;;;;5052898;28;20024;-61
2023/04/30 04:13:37;;;;;;;12.68;6.75;;;12.70;64.70;;;;;;5054960;28;20028;-61
2023/04/30 04:16:02;;;;;;;9.02;6.88;;;12.60;64.80;;;;;;5053983;28;20029;-60
2023/04/30 04:18:28;;;;;;;8.98;6.25;;;12.50;64.80;;;;;;5054535;28;20285;-61
2023/04/30 04:20:55;;;;;;;7.82;6.82;;;12.40;65.00;;;;;;5055587;28;20037;-63
2023/04/30 04:23:21;;;;;;;8.63;6.55;;;12.40;65.20;;;;;;5052747;28;20048;-60
2023/04/30 04:25:48;;;;;;;12.27;8.10;;;12.30;65.20;;;;;;5036932;28;20025;-60
2023/04/30 04:28:15;;;;;;;10.02;7.43;;;12.30;65.30;;;;;;5054988;28;20020;-60
2023/04/30 04:30:41;;;;;;;10.13;6.95;;;12.30;65.60;;;;;;5054471;28;20053;-61
2023/04/30 04:33:07;;;;;;;8.95;6.70;;;12.20;65.60;;;;;;5047995;28;20045;-61
2023/04/30 04:35:33;;;;;;;9.20;7.20;;;12.20;65.60;;;;;;5054504;28;20025;-61
2023/04/30 04:38:00;;;;;;;10.27;6.82;;;12.20;65.80;;;;;;5033760;28;20085;-61
2023/04/30 04:40:25;;;;;;;8.40;7.07;;;12.10;65.80;;;;;;4974294;28;20098;-61
2023/04/30 04:42:51;;;;;;;8.73;7.03;;;12.10;65.80;;;;;;5053291;28;20048;-61
2023/04/30 04:45:19;;;;;;;9.68;6.63;;;12.10;65.90;;;;;;5054830;28;20525;-61
2023/04/30 04:47:45;;;;;;;9.15;6.97;;;12.10;66.00;;;;;;5054843;28;20031;-60
2023/04/30 04:50:11;;;;;;;9.13;7.32;;;12.10;66.10;;;;;;5036473;28;20578;-60
2023/04/30 04:52:37;;;;;;;10.55;8.07;;;12.10;66.20;;;;;;5053258;28;20048;-62
2023/04/30 04:55:04;;;;;;;9.80;7.10;;;12.10;66.10;;;;;;5054338;28;20485;-60
2023/04/30 04:57:30;;;;;;;9.38;6.75;;;12.00;66.30;;;;;;5055746;28;20033;-60
2023/04/30 04:59:56;;;;;;;8.57;6.40;;;12.00;66.40;;;;;;5053766;28;20060;-61
2023/04/30 05:02:22;;;;;;;9.18;6.68;;;12.00;67.20;;;;;;5053145;28;20033;-61
2023/04/30 05:04:49;;;;;;;10.18;6.82;;;12.00;66.60;;;;;;5054665;28;20091;-61
2023/04/30 05:07:16;;;;;;;10.55;7.10;;;12.00;66.70;;;;;;5054841;28;20036;-61
2023/04/30 05:09:43;;;;;;;8.13;6.30;;;12.00;66.60;;;;;;5054286;28;20430;-61
2023/04/30 05:12:08;;;;;;;7.57;6.32;;;12.10;66.80;;;;;;5052751;28;20068;-60
2023/04/30 05:14:36;;;;;;;9.15;6.55;;;12.10;66.80;;;;;;5055482;28;20025;-60
2023/04/30 05:17:01;;;;;;;8.77;6.75;;;12.10;66.80;;;;;;5053894;28;20025;-61
2023/04/30 05:19:27;;;;;;;9.45;6.97;;;12.20;66.80;;;;;;5054155;28;20112;-62
2023/04/30 05:21:53;;;;;;;9.23;6.60;;;12.20;66.90;;;;;;5054689;28;20434;-61
2023/04/30 05:24:18;;;;;;;7.47;6.35;;;12.30;67.00;;;;;;5051292;28;20040;-61
2023/04/30 05:26:44;;;;;;;9.85;7.60;;;12.40;67.00;;;;;;5053862;28;20033;-61
2023/04/30 05:29:10;;;;;;;10.10;6.90;;;12.40;67.00;;;;;;5053796;28;20071;-63
2023/04/30 05:31:36;;;;;;;8.38;6.40;;;12.50;66.90;;;;;;5053749;28;20021;-60
2023/04/30 05:34:02;;;;;;;10.15;7.28;;;12.60;66.90;;;;;;5053724;28;20086;-61
2023/04/30 05:36:28;;;;;;;14.65;7.30;;;12.60;66.80;;;;;;5054137;28;20021;-61
2023/04/30 05:38:54;;;;;;;9.48;6.90;;;12.70;66.90;;;;;;5053912;28;20020;-61
2023/04/30 05:41:20;;;;;;;8.98;7.18;;;12.70;66.90;;;;;;5050097;28;20021;-60
2023/04/30 05:43:46;;;;;;;9.43;7.43;;;12.80;66.90;;;;;;5052564;28;20036;-60
2023/04/30 05:46:12;;;;;;;9.02;7.38;;;12.80;66.70;;;;;;5054604;28;20390;-61
2023/04/30 05:48:38;;;;;;;8.45;7.28;;;12.90;66.60;;;;;;5056727;28;20021;-60
2023/04/30 05:51:05;;;;;;;10.43;7.35;;;13.00;66.70;;;;;;5058866;28;20017;-61
2023/04/30 05:53:32;;;;;;;10.15;7.25;;;13.00;66.80;;;;;;5057040;28;20025;-61
2023/04/30 05:55:58;;;;;;;9.55;7.10;;;13.10;66.90;;;;;;5059186;28;20032;-60
2023/04/30 05:58:24;;;;;;;9.43;7.03;;;13.20;66.70;;;;;;5056684;28;20033;-63
2023/04/30 06:00:50;;;;;;;8.82;7.00;;;13.30;66.50;;;;;;5056835;28;20036;-60
2023/04/30 06:03:19;;;;;;;9.02;6.95;;;13.40;66.60;;;;;;5057245;28;20055;-64
2023/04/30 06:05:46;;;;;;;10.23;7.55;;;13.40;66.60;;;;;;5058641;28;20037;-62
2023/04/30 06:08:12;;;;;;;8.63;7.00;;;13.50;66.40;;;;;;5054521;28;20055;-62
2023/04/30 06:10:38;;;;;;;7.72;6.53;;;13.60;66.30;;;;;;5038682;28;20514;-62
2023/04/30 06:13:04;;;;;;;9.63;6.03;;;13.70;66.10;;;;;;5056827;28;20025;-62
2023/04/30 06:15:30;;;;;;;8.13;5.80;;;13.80;65.90;;;;;;5058706;28;20036;-62
2023/04/30 06:17:55;;;;;;;8.73;6.65;;;13.90;65.90;;;;;;5038928;28;20021;-63
2023/04/30 06:20:21;;;;;;;8.23;6.50;;;14.00;65.70;;;;;;5056503;28;20077;-63
2023/04/30 06:22:47;;;;;;;9.38;6.15;;;14.10;65.40;;;;;;5040365;28;20037;-63
2023/04/30 06:25:12;;;;;;;8.20;5.70;;;14.20;65.10;;;;;;5054959;28;20073;-63
2023/04/30 06:27:38;;;;;;;7.47;5.95;;;14.30;64.90;;;;;;5057800;28;20033;-63
2023/04/30 06:30:04;;;;;;;7.65;6.07;;;14.40;64.50;;;;;;5056118;28;20076;-62
2023/04/30 06:32:30;;;;;;;6.30;5.60;;;14.40;64.30;;;;;;5056375;28;20025;-62
2023/04/30 06:34:56;;;;;;;8.43;5.55;;;14.50;64.20;;;;;;5053962;28;20097;-62
2023/04/30 06:37:21;;;;;;;6.90;6.07;;;14.60;63.80;;;;;;5056440;28;20029;-64
2023/04/30 06:39:47;;;;;;;7.43;5.70;;;14.70;63.40;;;;;;4966428;28;21195;-61
2023/04/30 06:42:13;;;;;;;6.72;5.65;;;14.80;63.30;;;;;;5052109;28;20032;-62
2023/04/30 06:44:39;;;;;;;9.48;7.05;;;14.80;62.80;;;;;;5056009;28;20060;-63
2023/04/30 06:47:04;;;;;;;8.18;6.32;;;14.90;62.70;;;;;;5057118;28;20024;-61
2023/04/30 06:49:30;;;;;;;7.82;5.70;;;15.00;62.50;;;;;;5052316;28;20056;-62
2023/04/30 06:51:57;;;;;;;7.90;6.03;;;15.00;62.30;;;;;;5051484;28;20031;-62
2023/04/30 06:54:25;;;;;;;8.43;6.15;;;15.00;62.10;;;;;;5057765;28;20044;-62
2023/04/30 06:56:51;;;;;;;6.93;6.07;;;15.10;62.00;;;;;;5057430;28;20021;-62
2023/04/30 06:59:17;;;;;;;8.95;6.50;;;15.20;62.20;;;;;;5057050;28;20048;-62
2023/04/30 07:01:42;;;;;;;8.75;6.32;;;15.20;62.00;;;;;;5047064;28;20044;-63
2023/04/30 07:04:08;;;;;;;9.80;6.68;;;15.30;61.60;;;;;;5058894;28;20048;-64
2023/04/30 07:06:34;;;;;;;9.77;6.32;;;15.40;61.40;;;;;;5056424;28;20595;-63
2023/04/30 07:08:59;;;;;;;9.50;6.10;;;15.40;60.90;;;;;;5055965;28;20033;-65
2023/04/30 07:11:25;;;;;;;11.35;6.32;;;15.50;60.70;;;;;;5055204;28;20032;-63
2023/04/30 07:13:52;;;;;;;7.60;6.10;;;15.50;60.60;;;;;;5058872;28;20092;-64
2023/04/30 07:16:18;;;;;;;8.38;6.57;;;15.60;60.50;;;;;;5058559;28;20112;-63
2023/04/30 07:18:43;;;;;;;7.70;6.25;;;15.70;60.50;;;;;;5057697;28;20048;-63
2023/04/30 07:21:09;;;;;;;7.57;5.57;;;15.70;60.30;;;;;;5060256;28;20047;-62
2023/04/30 07:23:35;;;;;;;6.82;5.88;;;15.80;60.60;;;;;;5037140;28;20049;-62
2023/04/30 07:26:00;;;;;;;6.72;5.90;;;15.90;60.60;;;;;;5055539;28;20028;-63
2023/04/30 07:28:26;;;;;;;7.32;6.07;;;16.00;60.30;;;;;;5056940;28;20032;-64
2023/04/30 07:30:52;;;;;;;7.13;5.80;;;16.10;60.00;;;;;;5057520;28;20091;-65
2023/04/30 07:33:17;;;;;;;7.25;5.70;;;16.20;58.80;;;;;;5056489;28;20040;-64
2023/04/30 07:35:43;;;;;;;6.90;5.60;;;16.30;58.50;;;;;;5038480;28;20020;-64
2023/04/30 07:38:09;;;;;;;7.53;5.68;;;16.40;58.90;;;;;;5056025;28;20033;-64
2023/04/30 07:40:35;;;;;;;10.00;5.90;;;16.50;59.00;;;;;;4993129;28;20024;-64
2023/04/30 07:43:01;;;;;;;7.45;5.75;;;16.60;58.90;;;;;;5055941;28;20051;-61
2023/04/30 07:45:26;;;;;;;6.70;5.63;;;16.70;58.40;;;;;;5055992;28;20037;-64
2023/04/30 07:47:52;;;;;;;7.68;5.70;;;16.80;58.40;;;;;;5039683;28;20093;-63
2023/04/30 07:50:18;;;;;;;7.35;5.78;;;16.90;58.00;;;;;;5055568;28;20051;-64
2023/04/30 07:52:43;;;;;;;6.38;5.25;;;17.00;57.90;;;;;;5052660;28;20032;-64
2023/04/30 07:55:09;;;;;;;5.88;4.95;;;17.10;57.80;;;;;;5055729;28;20549;-61
2023/04/30 07:57:35;;;;;;;8.50;5.03;;;17.30;57.70;;;;;;5055510;28;20089;-63
2023/04/30 08:00:00;;;;;;;6.30;4.75;;;17.40;57.20;;;;;;5056714;28;20033;-61
2023/04/30 08:02:26;;;;;;;12.18;5.20;;;17.50;56.90;;;;;;5054170;28;20352;-65
2023/04/30 08:04:52;;;;;;;7.75;5.38;;;17.50;56.60;;;;;;5055566;28;20036;-63
2023/04/30 08:07:19;;;;;;;7.07;4.68;;;17.60;56.60;;;;;;5037599;28;20033;-62
2023/04/30 08:09:45;;;;;;;6.88;5.25;;;17.70;56.60;;;;;;5056313;28;20052;-62
2023/04/30 08:12:11;;;;;;;6.45;4.82;;;17.80;56.00;;;;;;5055792;28;20048;-64
2023/04/30 08:14:36;;;;;;;5.25;4.65;;;17.80;56.20;;;;;;5037766;28;20033;-62
2023/04/30 08:17:02;;;;;;;6.38;5.18;;;17.90;55.60;;;;;;5055334;28;20044;-62
2023/04/30 08:19:28;;;;;;;9.40;4.50;;;18.00;54.70;;;;;;5055102;28;20037;-62
2023/04/30 08:21:54;;;;;;;8.02;4.13;;;18.00;54.90;;;;;;5048794;28;20029;-63
2023/04/30 08:24:20;;;;;;;6.97;4.65;;;18.00;55.60;;;;;;5052388;28;20076;-63
2023/04/30 08:26:46;;;;;;;7.20;4.40;;;18.20;55.10;;;;;;5055161;28;20495;-63
2023/04/30 08:29:11;;;;;;;4.95;4.20;;;18.30;54.50;;;;;;5054958;28;20106;-63
2023/04/30 08:31:37;;;;;;;6.72;4.50;;;18.30;54.20;;;;;;5053902;28;20039;-63
2023/04/30 08:34:03;;;;;;;5.45;4.07;;;18.30;54.90;;;;;;5051605;28;20523;-63
2023/04/30 08:36:28;;;;;;;5.50;4.25;;;18.40;54.20;;;;;;5056884;28;20032;-62
2023/04/30 08:38:54;;;;;;;6.03;4.38;;;18.50;53.90;;;;;;5055736;28;20025;-62
2023/04/30 08:41:25;;;;;;;4.85;3.78;;;18.50;53.70;;;;;;4958119;28;20475;-63
2023/04/30 08:43:52;;;;;;;4.88;3.72;;;18.50;53.70;;;;;;5056199;28;20067;-62
2023/04/30 08:46:20;;;;;;;6.13;4.18;;;18.60;53.40;;;;;;5056820;28;20045;-62
2023/04/30 08:48:49;;;;;;;5.70;3.85;;;18.60;53.10;;;;;;5056348;28;20040;-62
2023/04/30 08:51:15;;;;;;;6.20;3.85;;;18.60;52.80;;;;;;5055380;28;20036;-63
2023/04/30 08:53:43;;;;;;;6.47;4.65;;;18.60;52.60;;;;;;5055978;28;20033;-64
2023/04/30 08:56:09;;;;;;;6.15;4.45;;;18.60;51.20;;;;;;5056236;28;20056;-63
2023/04/30 08:58:36;;;;;;;4.43;4.03;;;18.50;50.90;;;;;;5056205;28;20040;-63
2023/04/30 09:01:04;;;;;;;4.55;3.40;;;18.40;50.80;;;;;;5055531;28;20033;-64
2023/04/30 09:03:30;;;;;;;5.97;3.03;;;18.30;51.50;;;;;;5055240;28;20036;-62
2023/04/30 09:05:56;;;;;;;5.25;2.65;;;18.20;51.50;;;;;;5056568;28;20033;-64
2023/04/30 09:08:45;;;;;;;4.95;2.72;;;18.20;50.80;;;;;;5054579;28;20040;-64
2023/04/30 09:11:23;;;;;;;5.47;3.15;;;18.10;50.60;;;;;;5052953;28;20059;-63
2023/04/30 09:13:53;;;;;;;3.92;3.38;;;18.00;51.10;;;;;;5055937;28;20037;-63
2023/04/30 09:16:20;;;;;;;5.75;4.20;;;18.00;51.70;;;;;;5054267;28;20055;-64
2023/04/30 09:18:46;;;;;;;4.60;3.40;;;17.90;51.80;;;;;;5055568;28;20119;-63
2023/04/30 09:21:12;;;;;;;5.47;4.53;;;17.90;52.00;;;;;;5054680;28;20046;-63
2023/04/30 09:23:55;;;;;;;5.53;4.07;;;17.80;52.10;;;;;;5056277;28;20041;-63
2023/04/30 09:26:37;;;;;;;4.70;3.30;;;17.80;51.50;;;;;;5056869;28;20131;-63
2023/04/30 09:29:07;;;;;;;5.25;3.03;;;17.80;51.90;;;;;;5056731;28;20064;-64
2023/04/30 09:31:37;;;;;;;3.63;2.90;;;17.80;52.10;;;;;;5058739;28;20033;-64
2023/04/30 09:34:04;;;;;;;4.15;2.80;;;17.80;51.90;;;;;;5057154;28;20109;-63
2023/04/30 09:36:32;;;;;;;2.97;2.58;;;17.80;52.10;;;;;;5040414;28;20036;-64
2023/04/30 09:39:10;;;;;;;5.45;2.60;;;17.80;51.80;;;;;;5058006;28;20540;-63
2023/04/30 09:41:36;;;;;;;4.15;2.78;;;17.70;50.70;;;;;;4952633;28;20029;-63
2023/04/30 09:44:02;;;;;;;5.28;2.67;;;17.70;51.70;;;;;;5057332;28;20045;-64
2023/04/30 09:46:33;;;;;;;5.72;2.50;;;17.70;51.90;;;;;;5059554;28;20396;-64
2023/04/30 09:49:04;;;;;;;8.25;5.13;;;17.70;51.90;;;;;;5064474;28;20052;-64
2023/04/30 09:51:30;;;;;;;8.70;6.18;;;17.70;51.60;;;;;;5059105;28;20025;-64
2023/04/30 09:53:56;;;;;;;5.20;3.50;;;17.70;51.60;;;;;;5057346;28;20086;-63
2023/04/30 09:56:24;;;;;;;3.28;2.53;;;17.70;50.80;;;;;;5039228;28;20029;-63
2023/04/30 09:58:52;;;;;;;3.38;2.63;;;17.70;51.20;;;;;;5055948;28;20115;-62
2023/04/30 10:01:20;;;;;;;3.30;2.60;;;17.70;51.10;;;;;;5053142;28;20490;-64
2023/04/30 10:03:47;;;;;;;2.60;2.40;;;17.70;51.30;;;;;;5058277;28;20044;-63
2023/04/30 10:06:17;;;;;;;3.78;2.60;;;17.70;51.00;;;;;;5058072;28;20071;-62
2023/04/30 10:08:48;;;;;;;3.05;2.70;;;17.70;51.00;;;;;;5058317;28;20039;-63
2023/04/30 10:11:27;;;;;;;3.88;2.38;;;17.70;51.00;;;;;;5054570;28;20029;-63
2023/04/30 10:14:13;;;;;;;6.38;2.80;;;17.70;50.10;;;;;;5055206;28;20033;-63
2023/04/30 10:16:52;;;;;;;5.00;2.80;;;17.80;50.60;;;;;;5056426;28;20033;-63
2023/04/30 10:19:29;;;;;;;6.60;4.00;;;17.80;50.70;;;;;;5056990;28;20732;-63
2023/04/30 10:21:54;;;;;;;3.92;2.63;;;17.80;51.30;;;;;;5057382;28;20040;-62
2023/04/30 10:24:20;;;;;;;6.15;2.50;;;17.90;51.30;;;;;;5056423;28;20045;-65
2023/04/30 10:26:47;;;;;;;3.28;2.80;;;17.90;51.00;;;;;;5056910;28;20120;-63
2023/04/30 10:29:14;;;;;;;3.00;2.30;;;18.00;49.10;;;;;;5057955;28;20061;-63
2023/04/30 10:31:48;;;;;;;3.03;2.22;;;18.00;50.80;;;;;;5057449;28;20040;-65
2023/04/30 10:34:32;;;;;;;2.88;2.17;;;18.00;50.30;;;;;;5056704;28;20025;-63
2023/04/30 10:37:10;;;;;;;2.60;2.40;;;18.10;50.10;;;;;;5051438;28;20066;-64
2023/04/30 10:39:37;;;;;;;2.92;2.38;;;18.20;49.90;;;;;;4948648;28;20632;-64
2023/04/30 10:42:05;;;;;;;4.10;2.40;;;18.20;50.20;;;;;;5055901;28;21060;-62
2023/04/30 10:44:36;;;;;;;5.97;2.50;;;18.20;50.30;;;;;;5056229;28;20032;-62
2023/04/30 10:47:04;;;;;;;2.97;2.08;;;18.20;49.70;;;;;;5057077;28;20032;-64
2023/04/30 10:49:30;;;;;;;3.70;2.95;;;18.20;50.10;;;;;;5055500;28;20033;-64
2023/04/30 10:51:59;;;;;;;3.65;2.60;;;18.20;50.10;;;;;;5056960;28;20031;-64
2023/04/30 10:54:33;;;;;;;4.75;3.13;;;18.20;50.40;;;;;;5055168;28;20040;-64
2023/04/30 10:57:10;;;;;;;3.55;2.50;;;18.30;49.70;;;;;;5052556;28;20316;-63
2023/04/30 10:59:36;;;;;;;3.03;2.20;;;18.30;49.20;;;;;;5054449;28;20033;-63
2023/04/30 11:02:09;;;;;;;2.55;2.00;;;18.40;50.10;;;;;;5056349;28;20029;-64
2023/04/30 11:05:08;;;;;;;3.13;2.42;;;18.50;50.10;;;;;;5054779;28;20518;-64
2023/04/30 11:07:34;;;;;;;4.53;3.30;;;18.60;49.70;;;;;;5054764;28;20032;-64
2023/04/30 11:10:01;;;;;;;2.50;2.30;;;18.70;50.40;;;;;;5055225;28;20040;-64
2023/04/30 11:12:27;;;;;;;3.38;2.30;;;18.90;49.90;;;;;;5055939;28;20111;-62
2023/04/30 11:15:15;;;;;;;3.65;2.28;;;19.00;50.00;;;;;;5056078;28;20122;-64
2023/04/30 11:17:44;;;;;;;2.65;2.00;;;19.10;49.00;;;;;;5056969;28;20036;-63
2023/04/30 11:20:13;;;;;;;2.30;2.10;;;19.20;48.10;;;;;;5055241;28;20029;-63
2023/04/30 11:22:39;;;;;;;2.05;1.85;;;19.20;47.80;;;;;;5055187;28;20025;-63
2023/04/30 11:25:11;;;;;;;2.63;2.00;;;19.20;48.20;;;;;;5057540;28;20028;-66
2023/04/30 11:27:40;;;;;;;4.05;2.58;;;19.20;48.10;;;;;;5053504;28;20442;-64
2023/04/30 11:30:17;;;;;;;5.45;2.25;;;19.20;48.20;;;;;;5050406;28;20116;-64
2023/04/30 11:32:47;;;;;;;2.47;1.80;;;19.30;48.80;;;;;;5055977;28;20033;-65
2023/04/30 11:35:17;;;;;;;5.57;2.25;;;19.40;48.60;;;;;;5058317;28;20060;-64
2023/04/30 11:37:44;;;;;;;2.35;2.10;;;19.40;48.20;;;;;;5036835;28;20147;-64
2023/04/30 11:40:11;;;;;;;2.05;1.83;;;19.50;47.40;;;;;;4947932;28;20036;-63
2023/04/30 11:42:39;;;;;;;6.78;4.55;;;19.60;47.80;;;;;;5054157;28;20163;-64
2023/04/30 11:45:12;;;;;;;20.45;12.00;;;19.60;48.60;;;;;;5056044;28;20044;-64
2023/04/30 11:47:41;;;;;;;7.63;4.75;;;19.70;48.10;;;;;;5054110;28;20029;-62
2023/04/30 11:50:12;;;;;;;4.45;3.42;;;19.80;47.50;;;;;;5055030;28;20033;-64
2023/04/30 11:52:39;;;;;;;5.47;2.53;;;19.90;47.20;;;;;;5054697;28;20611;-62
2023/04/30 11:55:07;;;;;;;4.20;2.45;;;19.80;47.50;;;;;;5056679;28;20024;-63
2023/04/30 11:57:54;;;;;;;2.70;2.22;;;19.80;47.40;;;;;;5055709;28;20123;-64
2023/04/30 12:00:25;;;;;;;2.67;2.10;;;19.80;47.10;;;;;;5055434;28;20044;-63
2023/04/30 12:02:52;;;;;;;2.67;2.05;;;19.90;47.20;;;;;;5055033;28;20029;-62
2023/04/30 12:05:23;;;;;;;5.05;3.97;;;19.90;46.40;;;;;;5053897;28;20041;-65
2023/04/30 12:07:50;;;;;;;9.52;6.18;;;19.90;47.30;;;;;;5054303;28;20031;-63
2023/04/30 12:10:18;;;;;;;5.45;4.25;;;19.90;47.50;;;;;;5054940;28;20088;-64
2023/04/30 12:12:44;;;;;;;6.65;4.78;;;19.90;46.90;;;;;;5055062;28;20032;-65
2023/04/30 12:15:25;;;;;;;5.93;4.63;;;19.90;46.40;;;;;;5057019;28;20021;-65
2023/04/30 12:17:55;;;;;;;4.15;3.10;;;19.90;47.00;;;;;;5048571;28;20070;-64
2023/04/30 12:20:23;;;;;;;5.70;3.88;;;19.90;47.00;;;;;;5036336;28;20226;-65
2023/04/30 12:22:49;;;;;;;4.03;2.40;;;19.90;46.60;;;;;;5054312;28;20092;-63
2023/04/30 12:25:17;;;;;;;5.20;3.83;;;19.90;46.70;;;;;;5053695;28;20088;-62
2023/04/30 12:27:48;;;;;;;7.07;4.85;;;19.90;47.10;;;;;;5054634;28;20071;-64
2023/04/30 12:30:20;;;;;;;6.05;3.72;;;20.00;46.70;;;;;;5053641;28;20056;-63
2023/04/30 12:32:49;;;;;;;5.72;2.78;;;20.10;46.80;;;;;;5054796;28;20029;-65
2023/04/30 12:35:17;;;;;;;3.17;2.63;;;20.20;45.90;;;;;;5055008;28;20040;-65
2023/04/30 12:37:50;;;;;;;5.35;2.92;;;20.30;46.40;;;;;;5053779;28;20064;-63
2023/04/30 12:40:25;;;;;;;5.97;3.75;;;20.30;45.10;;;;;;4943254;28;20098;-64
2023/04/30 12:42:58;;;;;;;10.85;6.35;;;20.40;45.80;;;;;;5035811;28;20029;-65
2023/04/30 12:45:42;;;;;;;6.78;3.30;;;20.50;45.70;;;;;;5052126;28;20044;-64
2023/04/30 12:48:08;;;;;;;7.00;4.32;;;20.50;45.00;;;;;;5050527;28;20036;-65
2023/04/30 12:50:34;;;;;;;2.67;2.45;;;20.60;45.60;;;;;;5053527;28;20036;-64
2023/04/30 12:53:06;;;;;;;3.38;2.10;;;20.70;45.70;;;;;;5053096;28;20033;-63